sensor_id;sensor_type;location;lat;lon;timestamp;P1;durP1;ratioP1;P2;durP2;ratioP2
75234;SDS011;63817;51.228;-1.472;2023-07-31T00:01:09;6.93;;;2.95;;
75234;SDS011;63817;51.228;-1.472;2023-07-31T00:03:35;6.85;;;2.45;;
75234;SDS011;63817;51.228;-1.472;2023-07-31T00:06:00;7.85;;;2.28;;
75234;SDS011;63817;51.228;-1.472;2023-07-31T00:08:26;7.43;;;2.20;;
75234;SDS011;63817;51.228;-1.472;2023-07-31T00:10:52;10.32;;;2.25;;
75234;SDS011;63817;51.228;-1.472;2023-07-31T00:13:17;7.53;;;2.28;;
75234;SDS011;63817;51.228;-1.472;2023-07-31T00:15:43;9.05;;;2.10;;
75234;SDS011;63817;51.228;-1.472;2023-07-31T00:18:08;3.15;;;1.95;;
75234;SDS011;63817;51.228;-1.472;2023-07-31T00:20:34;5.43;;;2.45;;
75234;SDS011;63817;51.228;-1.472;2023-07-31T00:22:59;3.35;;;1.98;;
75234;SDS011;63817;51.228;-1.472;2023-07-31T00:25:24;7.05;;;2.63;;
75234;SDS011;63817;51.228;-1.472;2023-07-31T00:27:50;7.80;;;2.30;;
75234;SDS011;63817;51.228;-1.472;2023-07-31T00:30:15;3.95;;;1.80;;
75234;SDS011;63817;51.228;-1.472;2023-07-31T00:32:41;6.57;;;2.00;;
75234;SDS011;63817;51.228;-1.472;2023-07-31T00:35:06;5.93;;;1.77;;
75234;SDS011;63817;51.228;-1.472;2023-07-31T00:37:32;5.93;;;2.33;;
75234;SDS011;63817;51.228;-1.472;2023-07-31T00:39:57;7.45;;;2.00;;
75234;SDS011;63817;51.228;-1.472;2023-07-31T00:42:23;5.47;;;2.40;;
75234;SDS011;63817;51.228;-1.472;2023-07-31T00:47:53;8.25;;;3.33;;
75234;SDS011;63817;51.228;-1.472;2023-07-31T00:50:19;15.05;;;4.00;;
75234;SDS011;63817;51.228;-1.472;2023-07-31T00:52:44;10.43;;;3.72;;
75234;SDS011;63817;51.228;-1.472;2023-07-31T00:55:10;16.75;;;4.10;;
75234;SDS011;63817;51.228;-1.472;2023-07-31T00:57:35;18.38;;;5.00;;
75234;SDS011;63817;51.228;-1.472;2023-07-31T01:00:02;15.70;;;5.20;;
75234;SDS011;63817;51.228;-1.472;2023-07-31T01:02:28;17.75;;;4.88;;
75234;SDS011;63817;51.228;-1.472;2023-07-31T01:04:54;24.38;;;6.05;;
75234;SDS011;63817;51.228;-1.472;2023-07-31T01:07:31;11.05;;;5.13;;
75234;SDS011;63817;51.228;-1.472;2023-07-31T01:10:22;21.95;;;6.18;;
75234;SDS011;63817;51.228;-1.472;2023-07-31T01:12:50;27.80;;;5.90;;
75234;SDS011;63817;51.228;-1.472;2023-07-31T01:15:16;21.40;;;7.35;;
75234;SDS011;63817;51.228;-1.472;2023-07-31T01:17:42;21.27;;;6.85;;
75234;SDS011;63817;51.228;-1.472;2023-07-31T01:20:18;22.73;;;6.35;;
75234;SDS011;63817;51.228;-1.472;2023-07-31T01:28:23;28.35;;;6.75;;
75234;SDS011;63817;51.228;-1.472;2023-07-31T01:31:07;23.40;;;5.88;;
75234;SDS011;63817;51.228;-1.472;2023-07-31T01:33:32;26.50;;;6.60;;
75234;SDS011;63817;51.228;-1.472;2023-07-31T01:35:58;21.38;;;6.15;;
75234;SDS011;63817;51.228;-1.472;2023-07-31T01:38:24;24.42;;;6.63;;
75234;SDS011;63817;51.228;-1.472;2023-07-31T01:40:52;18.33;;;5.03;;
75234;SDS011;63817;51.228;-1.472;2023-07-31T01:43:18;17.15;;;5.07;;
75234;SDS011;63817;51.228;-1.472;2023-07-31T01:45:44;18.25;;;4.95;;
75234;SDS011;63817;51.228;-1.472;2023-07-31T01:48:09;14.45;;;5.28;;
75234;SDS011;63817;51.228;-1.472;2023-07-31T01:50:35;18.13;;;5.22;;
75234;SDS011;63817;51.228;-1.472;2023-07-31T01:53:00;17.88;;;3.95;;
75234;SDS011;63817;51.228;-1.472;2023-07-31T01:55:25;14.82;;;4.80;;
75234;SDS011;63817;51.228;-1.472;2023-07-31T01:57:51;16.83;;;4.65;;
75234;SDS011;63817;51.228;-1.472;2023-07-31T02:00:17;21.98;;;4.63;;
75234;SDS011;63817;51.228;-1.472;2023-07-31T02:02:43;22.90;;;5.20;;
75234;SDS011;63817;51.228;-1.472;2023-07-31T02:05:08;18.25;;;4.68;;
75234;SDS011;63817;51.228;-1.472;2023-07-31T02:07:33;14.07;;;4.88;;
75234;SDS011;63817;51.228;-1.472;2023-07-31T02:09:59;19.08;;;5.38;;
75234;SDS011;63817;51.228;-1.472;2023-07-31T02:12:24;22.60;;;4.75;;
75234;SDS011;63817;51.228;-1.472;2023-07-31T02:14:50;19.98;;;5.18;;
75234;SDS011;63817;51.228;-1.472;2023-07-31T02:17:15;16.30;;;5.13;;
75234;SDS011;63817;51.228;-1.472;2023-07-31T02:19:40;19.58;;;4.90;;
75234;SDS011;63817;51.228;-1.472;2023-07-31T02:22:06;23.50;;;4.85;;
75234;SDS011;63817;51.228;-1.472;2023-07-31T02:24:31;17.77;;;5.55;;
75234;SDS011;63817;51.228;-1.472;2023-07-31T02:26:57;17.40;;;3.95;;
75234;SDS011;63817;51.228;-1.472;2023-07-31T02:29:22;13.40;;;3.75;;
75234;SDS011;63817;51.228;-1.472;2023-07-31T02:31:47;18.73;;;3.38;;
75234;SDS011;63817;51.228;-1.472;2023-07-31T02:34:13;8.70;;;3.10;;
75234;SDS011;63817;51.228;-1.472;2023-07-31T02:36:38;14.82;;;3.58;;
75234;SDS011;63817;51.228;-1.472;2023-07-31T02:39:04;13.57;;;4.03;;
75234;SDS011;63817;51.228;-1.472;2023-07-31T02:41:29;15.30;;;3.40;;
75234;SDS011;63817;51.228;-1.472;2023-07-31T02:43:55;14.10;;;4.20;;
75234;SDS011;63817;51.228;-1.472;2023-07-31T02:46:20;14.00;;;4.43;;
75234;SDS011;63817;51.228;-1.472;2023-07-31T02:48:49;21.30;;;5.25;;
75234;SDS011;63817;51.228;-1.472;2023-07-31T02:51:14;21.77;;;4.57;;
75234;SDS011;63817;51.228;-1.472;2023-07-31T02:53:40;13.98;;;4.25;;
75234;SDS011;63817;51.228;-1.472;2023-07-31T02:56:05;20.27;;;4.95;;
75234;SDS011;63817;51.228;-1.472;2023-07-31T02:58:30;24.55;;;5.63;;
75234;SDS011;63817;51.228;-1.472;2023-07-31T03:00:57;18.65;;;4.82;;
75234;SDS011;63817;51.228;-1.472;2023-07-31T03:03:23;15.70;;;4.55;;
75234;SDS011;63817;51.228;-1.472;2023-07-31T03:05:49;17.52;;;4.60;;
75234;SDS011;63817;51.228;-1.472;2023-07-31T03:08:14;17.23;;;4.20;;
75234;SDS011;63817;51.228;-1.472;2023-07-31T03:10:40;15.48;;;4.20;;
75234;SDS011;63817;51.228;-1.472;2023-07-31T03:13:06;18.38;;;4.68;;
75234;SDS011;63817;51.228;-1.472;2023-07-31T03:15:31;15.20;;;4.32;;
75234;SDS011;63817;51.228;-1.472;2023-07-31T03:17:56;15.35;;;3.97;;
75234;SDS011;63817;51.228;-1.472;2023-07-31T03:20:22;11.40;;;3.70;;
75234;SDS011;63817;51.228;-1.472;2023-07-31T03:22:47;12.07;;;4.05;;
75234;SDS011;63817;51.228;-1.472;2023-07-31T03:25:13;21.10;;;3.60;;
75234;SDS011;63817;51.228;-1.472;2023-07-31T03:27:39;9.52;;;3.60;;
75234;SDS011;63817;51.228;-1.472;2023-07-31T03:30:04;11.32;;;3.30;;
75234;SDS011;63817;51.228;-1.472;2023-07-31T03:32:30;14.85;;;3.90;;
75234;SDS011;63817;51.228;-1.472;2023-07-31T03:34:56;13.45;;;3.53;;
75234;SDS011;63817;51.228;-1.472;2023-07-31T03:37:21;14.55;;;3.85;;
75234;SDS011;63817;51.228;-1.472;2023-07-31T03:39:46;13.18;;;3.90;;
75234;SDS011;63817;51.228;-1.472;2023-07-31T03:42:12;20.83;;;4.13;;
75234;SDS011;63817;51.228;-1.472;2023-07-31T03:44:37;24.92;;;4.47;;
75234;SDS011;63817;51.228;-1.472;2023-07-31T03:47:03;19.55;;;4.10;;
75234;SDS011;63817;51.228;-1.472;2023-07-31T03:49:28;13.15;;;3.80;;
75234;SDS011;63817;51.228;-1.472;2023-07-31T03:51:53;15.60;;;4.13;;
75234;SDS011;63817;51.228;-1.472;2023-07-31T03:54:19;22.02;;;3.80;;
75234;SDS011;63817;51.228;-1.472;2023-07-31T03:56:44;15.30;;;3.78;;
75234;SDS011;63817;51.228;-1.472;2023-07-31T03:59:09;16.58;;;4.03;;
75234;SDS011;63817;51.228;-1.472;2023-07-31T04:01:35;12.60;;;3.75;;
75234;SDS011;63817;51.228;-1.472;2023-07-31T04:04:00;18.20;;;3.90;;
75234;SDS011;63817;51.228;-1.472;2023-07-31T04:06:26;13.93;;;4.28;;
75234;SDS011;63817;51.228;-1.472;2023-07-31T04:08:51;15.15;;;4.18;;
75234;SDS011;63817;51.228;-1.472;2023-07-31T04:11:16;15.60;;;4.18;;
75234;SDS011;63817;51.228;-1.472;2023-07-31T04:13:42;13.15;;;3.38;;
75234;SDS011;63817;51.228;-1.472;2023-07-31T04:16:07;17.05;;;4.43;;
75234;SDS011;63817;51.228;-1.472;2023-07-31T04:18:33;15.93;;;3.97;;
75234;SDS011;63817;51.228;-1.472;2023-07-31T04:20:58;14.18;;;3.75;;
75234;SDS011;63817;51.228;-1.472;2023-07-31T04:23:25;14.13;;;4.10;;
75234;SDS011;63817;51.228;-1.472;2023-07-31T04:25:50;14.10;;;3.88;;
75234;SDS011;63817;51.228;-1.472;2023-07-31T04:28:16;11.95;;;3.25;;
75234;SDS011;63817;51.228;-1.472;2023-07-31T04:30:42;15.00;;;4.13;;
75234;SDS011;63817;51.228;-1.472;2023-07-31T04:33:07;23.45;;;4.15;;
75234;SDS011;63817;51.228;-1.472;2023-07-31T04:35:33;12.70;;;3.58;;
75234;SDS011;63817;51.228;-1.472;2023-07-31T04:37:58;17.45;;;4.38;;
75234;SDS011;63817;51.228;-1.472;2023-07-31T04:40:23;16.65;;;4.05;;
75234;SDS011;63817;51.228;-1.472;2023-07-31T04:42:49;22.88;;;4.35;;
75234;SDS011;63817;51.228;-1.472;2023-07-31T04:45:14;19.13;;;5.40;;
75234;SDS011;63817;51.228;-1.472;2023-07-31T04:47:40;16.70;;;4.15;;
75234;SDS011;63817;51.228;-1.472;2023-07-31T04:50:05;21.50;;;5.03;;
75234;SDS011;63817;51.228;-1.472;2023-07-31T04:52:31;17.65;;;5.47;;
75234;SDS011;63817;51.228;-1.472;2023-07-31T04:54:56;11.65;;;3.40;;
75234;SDS011;63817;51.228;-1.472;2023-07-31T04:57:22;22.00;;;4.28;;
75234;SDS011;63817;51.228;-1.472;2023-07-31T04:59:47;9.55;;;3.33;;
75234;SDS011;63817;51.228;-1.472;2023-07-31T05:02:13;16.25;;;3.05;;
75234;SDS011;63817;51.228;-1.472;2023-07-31T05:04:38;18.23;;;3.92;;
75234;SDS011;63817;51.228;-1.472;2023-07-31T05:07:04;15.90;;;3.75;;
75234;SDS011;63817;51.228;-1.472;2023-07-31T05:09:29;16.27;;;4.50;;
75234;SDS011;63817;51.228;-1.472;2023-07-31T05:11:55;9.93;;;3.65;;
75234;SDS011;63817;51.228;-1.472;2023-07-31T05:14:20;12.27;;;3.83;;
75234;SDS011;63817;51.228;-1.472;2023-07-31T05:16:46;15.45;;;4.15;;
75234;SDS011;63817;51.228;-1.472;2023-07-31T05:19:11;13.20;;;3.15;;
75234;SDS011;63817;51.228;-1.472;2023-07-31T05:21:37;12.40;;;3.10;;
75234;SDS011;63817;51.228;-1.472;2023-07-31T05:24:02;14.23;;;4.13;;
75234;SDS011;63817;51.228;-1.472;2023-07-31T05:26:28;11.77;;;3.58;;
75234;SDS011;63817;51.228;-1.472;2023-07-31T05:28:53;17.63;;;3.80;;
75234;SDS011;63817;51.228;-1.472;2023-07-31T05:31:19;14.70;;;4.10;;
75234;SDS011;63817;51.228;-1.472;2023-07-31T05:33:45;15.88;;;3.22;;
75234;SDS011;63817;51.228;-1.472;2023-07-31T05:36:11;17.17;;;3.20;;
75234;SDS011;63817;51.228;-1.472;2023-07-31T05:38:36;9.93;;;3.30;;
75234;SDS011;63817;51.228;-1.472;2023-07-31T05:41:02;12.05;;;3.55;;
75234;SDS011;63817;51.228;-1.472;2023-07-31T05:43:27;13.73;;;2.58;;
75234;SDS011;63817;51.228;-1.472;2023-07-31T05:45:53;15.02;;;3.42;;
75234;SDS011;63817;51.228;-1.472;2023-07-31T05:48:18;16.48;;;3.35;;
75234;SDS011;63817;51.228;-1.472;2023-07-31T05:50:44;10.45;;;3.05;;
75234;SDS011;63817;51.228;-1.472;2023-07-31T05:53:09;12.02;;;3.17;;
75234;SDS011;63817;51.228;-1.472;2023-07-31T05:55:35;9.05;;;2.90;;
75234;SDS011;63817;51.228;-1.472;2023-07-31T05:58:01;11.02;;;3.20;;
75234;SDS011;63817;51.228;-1.472;2023-07-31T06:00:26;11.63;;;3.83;;
75234;SDS011;63817;51.228;-1.472;2023-07-31T06:02:52;15.07;;;3.08;;
75234;SDS011;63817;51.228;-1.472;2023-07-31T06:05:18;14.23;;;2.78;;
75234;SDS011;63817;51.228;-1.472;2023-07-31T06:07:43;9.43;;;2.95;;
75234;SDS011;63817;51.228;-1.472;2023-07-31T06:10:09;13.73;;;2.88;;
75234;SDS011;63817;51.228;-1.472;2023-07-31T06:12:34;11.02;;;2.70;;
75234;SDS011;63817;51.228;-1.472;2023-07-31T06:15:01;10.07;;;2.40;;
75234;SDS011;63817;51.228;-1.472;2023-07-31T06:17:27;11.82;;;3.08;;
75234;SDS011;63817;51.228;-1.472;2023-07-31T06:19:52;20.25;;;3.35;;
75234;SDS011;63817;51.228;-1.472;2023-07-31T06:22:18;11.80;;;3.47;;
75234;SDS011;63817;51.228;-1.472;2023-07-31T06:24:44;13.20;;;3.75;;
75234;SDS011;63817;51.228;-1.472;2023-07-31T06:27:09;10.10;;;3.10;;
75234;SDS011;63817;51.228;-1.472;2023-07-31T06:29:35;11.93;;;3.20;;
75234;SDS011;63817;51.228;-1.472;2023-07-31T06:32:00;8.65;;;2.88;;
75234;SDS011;63817;51.228;-1.472;2023-07-31T06:34:26;13.38;;;3.17;;
75234;SDS011;63817;51.228;-1.472;2023-07-31T06:36:52;15.98;;;3.22;;
75234;SDS011;63817;51.228;-1.472;2023-07-31T06:39:17;11.55;;;2.92;;
75234;SDS011;63817;51.228;-1.472;2023-07-31T06:41:43;13.70;;;2.67;;
75234;SDS011;63817;51.228;-1.472;2023-07-31T06:44:09;10.95;;;2.53;;
75234;SDS011;63817;51.228;-1.472;2023-07-31T06:46:34;5.72;;;2.00;;
75234;SDS011;63817;51.228;-1.472;2023-07-31T06:49:00;9.40;;;2.30;;
75234;SDS011;63817;51.228;-1.472;2023-07-31T06:51:25;10.75;;;2.30;;
75234;SDS011;63817;51.228;-1.472;2023-07-31T06:53:51;9.05;;;2.30;;
75234;SDS011;63817;51.228;-1.472;2023-07-31T06:56:16;10.95;;;2.85;;
75234;SDS011;63817;51.228;-1.472;2023-07-31T06:58:42;7.18;;;2.53;;
75234;SDS011;63817;51.228;-1.472;2023-07-31T07:01:08;5.88;;;2.30;;
75234;SDS011;63817;51.228;-1.472;2023-07-31T07:03:33;8.85;;;2.63;;
75234;SDS011;63817;51.228;-1.472;2023-07-31T07:05:59;4.40;;;2.25;;
75234;SDS011;63817;51.228;-1.472;2023-07-31T07:08:24;9.82;;;2.80;;
75234;SDS011;63817;51.228;-1.472;2023-07-31T07:10:50;4.78;;;2.33;;
75234;SDS011;63817;51.228;-1.472;2023-07-31T07:13:15;10.82;;;3.35;;
75234;SDS011;63817;51.228;-1.472;2023-07-31T07:15:43;11.70;;;3.20;;
75234;SDS011;63817;51.228;-1.472;2023-07-31T07:18:09;12.63;;;3.28;;
75234;SDS011;63817;51.228;-1.472;2023-07-31T07:20:35;9.75;;;3.45;;
75234;SDS011;63817;51.228;-1.472;2023-07-31T07:23:01;9.10;;;3.03;;
75234;SDS011;63817;51.228;-1.472;2023-07-31T07:25:26;10.95;;;3.42;;
75234;SDS011;63817;51.228;-1.472;2023-07-31T07:27:52;12.95;;;3.75;;
75234;SDS011;63817;51.228;-1.472;2023-07-31T07:30:18;11.82;;;2.97;;
75234;SDS011;63817;51.228;-1.472;2023-07-31T07:32:44;11.60;;;3.08;;
75234;SDS011;63817;51.228;-1.472;2023-07-31T07:35:10;12.15;;;3.60;;
75234;SDS011;63817;51.228;-1.472;2023-07-31T07:37:36;12.48;;;3.35;;
75234;SDS011;63817;51.228;-1.472;2023-07-31T07:40:02;10.15;;;3.28;;
75234;SDS011;63817;51.228;-1.472;2023-07-31T07:42:27;10.13;;;3.22;;
75234;SDS011;63817;51.228;-1.472;2023-07-31T07:44:53;8.35;;;3.05;;
75234;SDS011;63817;51.228;-1.472;2023-07-31T07:47:18;7.20;;;2.50;;
75234;SDS011;63817;51.228;-1.472;2023-07-31T07:49:44;8.52;;;3.00;;
75234;SDS011;63817;51.228;-1.472;2023-07-31T07:52:09;7.47;;;2.78;;
75234;SDS011;63817;51.228;-1.472;2023-07-31T07:54:34;11.77;;;3.35;;
75234;SDS011;63817;51.228;-1.472;2023-07-31T07:57:00;7.63;;;2.42;;
75234;SDS011;63817;51.228;-1.472;2023-07-31T07:59:25;5.82;;;2.33;;
75234;SDS011;63817;51.228;-1.472;2023-07-31T08:01:50;3.95;;;2.30;;
75234;SDS011;63817;51.228;-1.472;2023-07-31T08:04:16;9.38;;;2.15;;
75234;SDS011;63817;51.228;-1.472;2023-07-31T08:06:41;5.93;;;1.85;;
75234;SDS011;63817;51.228;-1.472;2023-07-31T08:09:07;4.45;;;1.63;;
75234;SDS011;63817;51.228;-1.472;2023-07-31T08:11:33;6.25;;;1.20;;
75234;SDS011;63817;51.228;-1.472;2023-07-31T08:13:59;4.15;;;1.52;;
75234;SDS011;63817;51.228;-1.472;2023-07-31T08:16:25;4.50;;;2.20;;
75234;SDS011;63817;51.228;-1.472;2023-07-31T08:18:50;3.60;;;1.52;;
75234;SDS011;63817;51.228;-1.472;2023-07-31T08:21:15;2.72;;;1.35;;
75234;SDS011;63817;51.228;-1.472;2023-07-31T08:23:41;4.63;;;1.77;;
75234;SDS011;63817;51.228;-1.472;2023-07-31T08:26:06;2.03;;;1.10;;
75234;SDS011;63817;51.228;-1.472;2023-07-31T08:28:32;2.50;;;1.17;;
75234;SDS011;63817;51.228;-1.472;2023-07-31T08:30:57;1.90;;;1.02;;
75234;SDS011;63817;51.228;-1.472;2023-07-31T08:33:23;2.78;;;1.13;;
75234;SDS011;63817;51.228;-1.472;2023-07-31T08:35:48;1.73;;;0.90;;
75234;SDS011;63817;51.228;-1.472;2023-07-31T08:38:13;2.35;;;0.90;;
75234;SDS011;63817;51.228;-1.472;2023-07-31T08:40:39;1.42;;;0.90;;
75234;SDS011;63817;51.228;-1.472;2023-07-31T08:43:04;2.45;;;0.90;;
75234;SDS011;63817;51.228;-1.472;2023-07-31T08:45:30;1.30;;;0.80;;
75234;SDS011;63817;51.228;-1.472;2023-07-31T08:47:56;9.48;;;1.50;;
75234;SDS011;63817;51.228;-1.472;2023-07-31T08:50:24;1.38;;;1.20;;
75234;SDS011;63817;51.228;-1.472;2023-07-31T08:52:50;1.95;;;1.25;;
75234;SDS011;63817;51.228;-1.472;2023-07-31T08:55:17;3.05;;;1.60;;
75234;SDS011;63817;51.228;-1.472;2023-07-31T08:57:43;3.80;;;1.35;;
75234;SDS011;63817;51.228;-1.472;2023-07-31T09:00:09;5.28;;;1.75;;
75234;SDS011;63817;51.228;-1.472;2023-07-31T09:02:50;4.72;;;1.75;;
75234;SDS011;63817;51.228;-1.472;2023-07-31T09:05:20;5.35;;;2.03;;
75234;SDS011;63817;51.228;-1.472;2023-07-31T09:07:47;3.63;;;1.70;;
75234;SDS011;63817;51.228;-1.472;2023-07-31T09:10:12;4.32;;;2.22;;
75234;SDS011;63817;51.228;-1.472;2023-07-31T09:12:38;5.57;;;2.13;;
75234;SDS011;63817;51.228;-1.472;2023-07-31T09:15:04;8.00;;;2.10;;
75234;SDS011;63817;51.228;-1.472;2023-07-31T09:20:20;7.80;;;2.40;;
75234;SDS011;63817;51.228;-1.472;2023-07-31T09:22:46;10.95;;;2.55;;
75234;SDS011;63817;51.228;-1.472;2023-07-31T09:30:24;9.70;;;2.33;;
75234;SDS011;63817;51.228;-1.472;2023-07-31T09:32:51;3.38;;;2.00;;
75234;SDS011;63817;51.228;-1.472;2023-07-31T09:35:31;5.95;;;2.80;;
75234;SDS011;63817;51.228;-1.472;2023-07-31T09:37:59;9.70;;;2.88;;
75234;SDS011;63817;51.228;-1.472;2023-07-31T09:40:32;3.97;;;2.35;;
75234;SDS011;63817;51.228;-1.472;2023-07-31T09:43:00;5.07;;;2.53;;
75234;SDS011;63817;51.228;-1.472;2023-07-31T09:45:27;8.38;;;3.08;;
75234;SDS011;63817;51.228;-1.472;2023-07-31T09:47:53;9.77;;;3.60;;
75234;SDS011;63817;51.228;-1.472;2023-07-31T09:50:22;6.55;;;3.00;;
75234;SDS011;63817;51.228;-1.472;2023-07-31T09:52:49;8.55;;;2.70;;
75234;SDS011;63817;51.228;-1.472;2023-07-31T09:55:15;8.73;;;2.88;;
75234;SDS011;63817;51.228;-1.472;2023-07-31T09:57:41;7.88;;;2.85;;
75234;SDS011;63817;51.228;-1.472;2023-07-31T10:00:11;6.07;;;3.17;;
75234;SDS011;63817;51.228;-1.472;2023-07-31T10:02:37;8.18;;;3.35;;
75234;SDS011;63817;51.228;-1.472;2023-07-31T10:05:03;6.40;;;3.08;;
75234;SDS011;63817;51.228;-1.472;2023-07-31T10:07:30;8.13;;;2.72;;
75234;SDS011;63817;51.228;-1.472;2023-07-31T10:10:00;9.32;;;3.85;;
75234;SDS011;63817;51.228;-1.472;2023-07-31T10:12:26;7.75;;;2.85;;
75234;SDS011;63817;51.228;-1.472;2023-07-31T10:14:56;7.57;;;3.15;;
75234;SDS011;63817;51.228;-1.472;2023-07-31T10:17:23;8.35;;;3.00;;
75234;SDS011;63817;51.228;-1.472;2023-07-31T10:19:51;8.13;;;3.10;;
75234;SDS011;63817;51.228;-1.472;2023-07-31T10:22:18;9.88;;;3.58;;
75234;SDS011;63817;51.228;-1.472;2023-07-31T10:24:45;5.30;;;3.30;;
75234;SDS011;63817;51.228;-1.472;2023-07-31T10:27:11;6.75;;;3.00;;
75234;SDS011;63817;51.228;-1.472;2023-07-31T10:29:40;6.57;;;2.72;;
75234;SDS011;63817;51.228;-1.472;2023-07-31T10:32:07;7.53;;;2.83;;
75234;SDS011;63817;51.228;-1.472;2023-07-31T10:34:35;6.68;;;2.72;;
75234;SDS011;63817;51.228;-1.472;2023-07-31T10:40:03;8.63;;;3.40;;
75234;SDS011;63817;51.228;-1.472;2023-07-31T10:42:36;6.05;;;2.75;;
75234;SDS011;63817;51.228;-1.472;2023-07-31T10:45:05;13.27;;;3.92;;
75234;SDS011;63817;51.228;-1.472;2023-07-31T10:47:38;7.68;;;3.28;;
75234;SDS011;63817;51.228;-1.472;2023-07-31T10:50:20;8.38;;;3.13;;
75234;SDS011;63817;51.228;-1.472;2023-07-31T10:52:47;8.75;;;3.60;;
75234;SDS011;63817;51.228;-1.472;2023-07-31T10:55:24;9.15;;;3.03;;
75234;SDS011;63817;51.228;-1.472;2023-07-31T10:57:54;8.88;;;3.10;;
75234;SDS011;63817;51.228;-1.472;2023-07-31T11:00:27;8.30;;;3.35;;
75234;SDS011;63817;51.228;-1.472;2023-07-31T11:03:04;10.68;;;4.07;;
75234;SDS011;63817;51.228;-1.472;2023-07-31T11:05:41;9.13;;;3.13;;
75234;SDS011;63817;51.228;-1.472;2023-07-31T11:10:41;11.68;;;4.00;;
75234;SDS011;63817;51.228;-1.472;2023-07-31T11:13:07;9.77;;;3.38;;
75234;SDS011;63817;51.228;-1.472;2023-07-31T11:15:33;6.95;;;3.92;;
75234;SDS011;63817;51.228;-1.472;2023-07-31T11:17:59;12.90;;;3.90;;
75234;SDS011;63817;51.228;-1.472;2023-07-31T11:20:25;9.82;;;4.35;;
75234;SDS011;63817;51.228;-1.472;2023-07-31T11:22:51;10.25;;;3.35;;
75234;SDS011;63817;51.228;-1.472;2023-07-31T11:25:18;19.17;;;4.95;;
75234;SDS011;63817;51.228;-1.472;2023-07-31T11:27:43;11.07;;;4.47;;
75234;SDS011;63817;51.228;-1.472;2023-07-31T11:30:09;13.27;;;4.95;;
75234;SDS011;63817;51.228;-1.472;2023-07-31T11:32:38;12.60;;;4.78;;
75234;SDS011;63817;51.228;-1.472;2023-07-31T11:35:04;11.95;;;4.82;;
75234;SDS011;63817;51.228;-1.472;2023-07-31T11:37:43;14.88;;;4.85;;
75234;SDS011;63817;51.228;-1.472;2023-07-31T11:40:09;16.63;;;5.15;;
75234;SDS011;63817;51.228;-1.472;2023-07-31T11:42:35;15.27;;;5.40;;
75234;SDS011;63817;51.228;-1.472;2023-07-31T11:45:08;13.45;;;5.03;;
75234;SDS011;63817;51.228;-1.472;2023-07-31T11:47:35;12.55;;;4.57;;
75234;SDS011;63817;51.228;-1.472;2023-07-31T11:50:05;14.55;;;4.93;;
75234;SDS011;63817;51.228;-1.472;2023-07-31T11:52:36;14.88;;;5.07;;
75234;SDS011;63817;51.228;-1.472;2023-07-31T11:55:04;13.35;;;4.70;;
75234;SDS011;63817;51.228;-1.472;2023-07-31T11:57:31;14.45;;;4.93;;
75234;SDS011;63817;51.228;-1.472;2023-07-31T11:59:57;18.17;;;4.82;;
75234;SDS011;63817;51.228;-1.472;2023-07-31T12:02:23;10.45;;;4.82;;
75234;SDS011;63817;51.228;-1.472;2023-07-31T12:04:49;14.98;;;6.90;;
75234;SDS011;63817;51.228;-1.472;2023-07-31T12:07:14;14.52;;;5.78;;
75234;SDS011;63817;51.228;-1.472;2023-07-31T12:09:53;29.38;;;6.35;;
75234;SDS011;63817;51.228;-1.472;2023-07-31T12:12:19;12.63;;;5.13;;
75234;SDS011;63817;51.228;-1.472;2023-07-31T12:14:48;16.85;;;5.10;;
75234;SDS011;63817;51.228;-1.472;2023-07-31T12:17:16;22.00;;;6.30;;
75234;SDS011;63817;51.228;-1.472;2023-07-31T12:19:42;17.10;;;5.63;;
75234;SDS011;63817;51.228;-1.472;2023-07-31T12:22:11;17.05;;;5.82;;
75234;SDS011;63817;51.228;-1.472;2023-07-31T12:24:38;20.30;;;6.20;;
75234;SDS011;63817;51.228;-1.472;2023-07-31T12:27:08;18.88;;;7.07;;
75234;SDS011;63817;51.228;-1.472;2023-07-31T12:29:37;17.38;;;6.43;;
75234;SDS011;63817;51.228;-1.472;2023-07-31T12:32:04;22.27;;;7.15;;
75234;SDS011;63817;51.228;-1.472;2023-07-31T12:34:43;19.95;;;7.03;;
75234;SDS011;63817;51.228;-1.472;2023-07-31T12:37:08;17.75;;;6.38;;
75234;SDS011;63817;51.228;-1.472;2023-07-31T12:39:34;23.27;;;7.38;;
75234;SDS011;63817;51.228;-1.472;2023-07-31T12:41:59;23.17;;;6.15;;
75234;SDS011;63817;51.228;-1.472;2023-07-31T12:44:25;20.67;;;7.43;;
75234;SDS011;63817;51.228;-1.472;2023-07-31T12:46:50;21.45;;;6.97;;
75234;SDS011;63817;51.228;-1.472;2023-07-31T12:49:15;21.33;;;7.28;;
75234;SDS011;63817;51.228;-1.472;2023-07-31T12:51:41;23.50;;;6.95;;
75234;SDS011;63817;51.228;-1.472;2023-07-31T12:54:06;18.02;;;6.30;;
75234;SDS011;63817;51.228;-1.472;2023-07-31T12:56:32;20.23;;;6.22;;
75234;SDS011;63817;51.228;-1.472;2023-07-31T12:58:57;20.13;;;6.70;;
75234;SDS011;63817;51.228;-1.472;2023-07-31T13:01:23;23.20;;;6.57;;
75234;SDS011;63817;51.228;-1.472;2023-07-31T13:03:48;22.00;;;6.32;;
75234;SDS011;63817;51.228;-1.472;2023-07-31T13:06:32;19.02;;;6.70;;
75234;SDS011;63817;51.228;-1.472;2023-07-31T13:08:57;17.08;;;6.68;;
75234;SDS011;63817;51.228;-1.472;2023-07-31T13:11:23;27.38;;;6.28;;
75234;SDS011;63817;51.228;-1.472;2023-07-31T13:13:48;19.50;;;6.68;;
75234;SDS011;63817;51.228;-1.472;2023-07-31T13:16:13;23.85;;;7.22;;
75234;SDS011;63817;51.228;-1.472;2023-07-31T13:18:39;26.80;;;7.22;;
75234;SDS011;63817;51.228;-1.472;2023-07-31T13:21:04;17.95;;;6.13;;
75234;SDS011;63817;51.228;-1.472;2023-07-31T13:23:30;18.48;;;5.90;;
75234;SDS011;63817;51.228;-1.472;2023-07-31T13:25:55;16.02;;;5.80;;
75234;SDS011;63817;51.228;-1.472;2023-07-31T13:28:20;18.67;;;6.07;;
75234;SDS011;63817;51.228;-1.472;2023-07-31T13:30:46;17.85;;;6.85;;
75234;SDS011;63817;51.228;-1.472;2023-07-31T13:33:11;20.67;;;6.40;;
75234;SDS011;63817;51.228;-1.472;2023-07-31T13:35:37;20.10;;;6.55;;
75234;SDS011;63817;51.228;-1.472;2023-07-31T13:38:02;17.65;;;6.55;;
75234;SDS011;63817;51.228;-1.472;2023-07-31T13:40:28;19.42;;;6.90;;
75234;SDS011;63817;51.228;-1.472;2023-07-31T13:42:53;16.58;;;5.97;;
75234;SDS011;63817;51.228;-1.472;2023-07-31T13:45:19;18.00;;;7.68;;
75234;SDS011;63817;51.228;-1.472;2023-07-31T13:47:45;20.77;;;7.25;;
75234;SDS011;63817;51.228;-1.472;2023-07-31T13:50:10;21.70;;;6.70;;
75234;SDS011;63817;51.228;-1.472;2023-07-31T13:52:36;19.38;;;7.32;;
75234;SDS011;63817;51.228;-1.472;2023-07-31T13:55:01;21.05;;;6.68;;
75234;SDS011;63817;51.228;-1.472;2023-07-31T13:57:26;20.00;;;7.55;;
75234;SDS011;63817;51.228;-1.472;2023-07-31T13:59:52;23.80;;;8.02;;
75234;SDS011;63817;51.228;-1.472;2023-07-31T14:02:17;19.83;;;6.30;;
75234;SDS011;63817;51.228;-1.472;2023-07-31T14:04:43;21.90;;;6.65;;
75234;SDS011;63817;51.228;-1.472;2023-07-31T14:07:08;22.75;;;6.70;;
75234;SDS011;63817;51.228;-1.472;2023-07-31T14:09:33;13.02;;;5.45;;
75234;SDS011;63817;51.228;-1.472;2023-07-31T14:11:59;18.67;;;6.05;;
75234;SDS011;63817;51.228;-1.472;2023-07-31T14:14:24;19.00;;;6.65;;
75234;SDS011;63817;51.228;-1.472;2023-07-31T14:16:50;14.57;;;5.32;;
75234;SDS011;63817;51.228;-1.472;2023-07-31T14:19:15;15.07;;;5.32;;
75234;SDS011;63817;51.228;-1.472;2023-07-31T14:21:40;12.40;;;5.20;;
75234;SDS011;63817;51.228;-1.472;2023-07-31T14:24:06;13.27;;;5.20;;
75234;SDS011;63817;51.228;-1.472;2023-07-31T14:26:31;17.02;;;5.93;;
75234;SDS011;63817;51.228;-1.472;2023-07-31T14:28:57;15.68;;;6.40;;
75234;SDS011;63817;51.228;-1.472;2023-07-31T14:31:22;15.23;;;5.72;;
75234;SDS011;63817;51.228;-1.472;2023-07-31T14:33:48;13.43;;;5.43;;
75234;SDS011;63817;51.228;-1.472;2023-07-31T14:36:13;15.98;;;5.88;;
75234;SDS011;63817;51.228;-1.472;2023-07-31T14:38:39;19.38;;;6.85;;
75234;SDS011;63817;51.228;-1.472;2023-07-31T14:41:04;15.60;;;5.82;;
75234;SDS011;63817;51.228;-1.472;2023-07-31T14:43:29;18.65;;;6.60;;